createdAt,value
2023-01-10T00:01:43.510Z,0.70
2023-01-10T00:03:50.071Z,0.70
2023-01-10T00:05:53.260Z,1.70
2023-01-10T00:07:56.122Z,0.60
2023-01-10T00:09:58.815Z,1.00
2023-01-10T00:12:19.952Z,0.70
2023-01-10T00:14:22.599Z,0.50
2023-01-10T00:16:25.207Z,0.50
2023-01-10T00:18:27.762Z,0.60
2023-01-10T00:20:30.986Z,0.60
2023-01-10T00:22:34.199Z,0.50
2023-01-10T00:24:36.990Z,0.40
2023-01-10T00:26:44.573Z,0.60
2023-01-10T00:28:48.014Z,0.70
2023-01-10T00:30:57.340Z,0.60
2023-01-10T00:33:00.588Z,0.70
2023-01-10T00:35:06.633Z,0.50
2023-01-10T00:37:09.213Z,0.20
2023-01-10T00:39:15.976Z,0.40
2023-01-10T00:41:37.295Z,0.30
2023-01-10T00:43:58.407Z,0.30
2023-01-10T00:46:02.841Z,0.70
2023-01-10T00:48:05.996Z,0.40
2023-01-10T00:50:09.305Z,0.50
2023-01-10T00:52:13.968Z,0.40
2023-01-10T00:54:16.709Z,0.50
2023-01-10T00:56:19.229Z,1.30
2023-01-10T00:58:22.665Z,0.60
2023-01-10T01:00:25.272Z,0.50
2023-01-10T01:02:28.105Z,0.50
2023-01-10T01:04:34.660Z,0.50
2023-01-10T01:06:50.826Z,0.90
2023-01-10T01:08:57.032Z,0.40
2023-01-10T01:11:00.150Z,0.40
2023-01-10T01:13:18.749Z,0.40
2023-01-10T01:15:24.811Z,1.00
2023-01-10T01:17:27.448Z,0.60
2023-01-10T01:19:29.982Z,0.40
2023-01-10T01:21:35.542Z,0.30
2023-01-10T01:23:38.266Z,0.40
2023-01-10T01:25:41.475Z,0.40
2023-01-10T01:27:44.238Z,0.40
2023-01-10T01:29:46.831Z,0.60
2023-01-10T01:31:49.439Z,0.40
2023-01-10T01:33:52.130Z,0.40
2023-01-10T01:35:57.530Z,0.60
2023-01-10T01:38:09.368Z,0.60
2023-01-10T01:40:19.325Z,0.80
2023-01-10T01:42:34.195Z,0.50
2023-01-10T01:44:47.680Z,0.60
2023-01-10T01:47:09.098Z,0.60
2023-01-10T01:49:18.432Z,0.70
2023-01-10T01:51:26.854Z,0.60
2023-01-10T01:53:53.192Z,0.70
2023-01-10T01:56:01.324Z,0.60
2023-01-10T01:58:08.774Z,0.50
2023-01-10T02:00:12.564Z,0.40
2023-01-10T02:02:20.955Z,0.30
2023-01-10T02:04:44.328Z,0.20
2023-01-10T02:06:50.180Z,0.30
2023-01-10T02:09:10.830Z,0.40
2023-01-10T02:11:13.677Z,0.50
2023-01-10T02:13:19.351Z,0.20
2023-01-10T02:15:22.203Z,0.50
2023-01-10T02:17:24.929Z,0.10
2023-01-10T02:19:46.461Z,0.30
2023-01-10T02:22:17.100Z,0.30
2023-01-10T02:24:45.829Z,0.50
2023-01-10T02:26:48.747Z,0.70
2023-01-10T02:29:16.504Z,0.40
2023-01-10T02:31:56.561Z,0.40
2023-01-10T02:34:24.981Z,0.50
2023-01-10T02:36:33.962Z,0.70
2023-01-10T02:39:00.235Z,0.60
2023-01-10T02:41:15.598Z,0.50
2023-01-10T02:43:24.028Z,0.50
2023-01-10T02:45:33.511Z,0.70
2023-01-10T02:47:40.815Z,0.60
2023-01-10T02:49:45.840Z,0.80
2023-01-10T02:51:48.498Z,0.70
2023-01-10T02:54:14.287Z,0.40
2023-01-10T02:56:52.925Z,0.60
2023-01-10T02:59:23.021Z,0.40
2023-01-10T03:02:09.676Z,0.90
2023-01-10T03:04:18.465Z,0.50
2023-01-10T03:06:52.708Z,0.50
2023-01-10T03:09:21.319Z,0.30
2023-01-10T03:11:43.431Z,0.30
2023-01-10T03:13:56.349Z,0.50
2023-01-10T03:16:00.434Z,0.30
2023-01-10T03:18:10.843Z,0.30
2023-01-10T03:20:14.980Z,0.30
2023-01-10T03:22:18.421Z,0.30
2023-01-10T03:24:36.785Z,0.40
2023-01-10T03:28:59.918Z,0.30
2023-01-10T03:31:11.231Z,0.50
2023-01-10T03:33:19.781Z,0.60
2023-01-10T03:35:28.566Z,0.60
2023-01-10T03:37:45.737Z,0.30
2023-01-10T03:40:05.669Z,0.40
2023-01-10T03:42:20.454Z,0.40
2023-01-10T03:44:45.666Z,0.60
2023-01-10T03:47:00.557Z,0.80
2023-01-10T03:49:06.693Z,0.60
2023-01-10T03:51:10.324Z,0.70
2023-01-10T03:53:15.458Z,0.60
2023-01-10T03:55:21.881Z,0.50
2023-01-10T03:57:25.013Z,0.30
2023-01-10T03:59:29.231Z,0.40
2023-01-10T04:01:34.554Z,0.10
2023-01-10T04:03:37.316Z,0.40
2023-01-10T04:05:40.260Z,0.30
2023-01-10T04:07:43.456Z,0.40
2023-01-10T04:09:46.316Z,0.20
2023-01-10T04:11:52.822Z,0.20
2023-01-10T04:13:57.412Z,0.70
2023-01-10T04:16:01.085Z,0.60
2023-01-10T04:18:04.028Z,0.50
2023-01-10T04:20:10.801Z,0.50
2023-01-10T04:22:25.456Z,0.40
2023-01-10T04:24:28.662Z,0.30
2023-01-10T04:26:32.742Z,0.30
2023-01-10T04:28:37.737Z,0.30
2023-01-10T04:30:41.989Z,0.30
2023-01-10T04:32:49.130Z,0.40
2023-01-10T04:34:53.141Z,0.60
2023-01-10T04:36:57.529Z,0.60
2023-01-10T04:39:01.905Z,0.30
2023-01-10T04:41:05.230Z,0.40
2023-01-10T04:43:08.388Z,0.50
2023-01-10T04:45:13.665Z,0.50
2023-01-10T04:47:19.667Z,0.30
2023-01-10T04:49:30.125Z,0.30
2023-01-10T04:51:33.825Z,0.40
2023-01-10T04:53:36.698Z,0.60
2023-01-10T04:55:43.923Z,0.40
2023-01-10T04:57:48.130Z,0.50
2023-01-10T04:59:55.060Z,1.00
2023-01-10T05:01:58.504Z,0.60
2023-01-10T05:04:18.107Z,0.20
2023-01-10T05:06:26.930Z,0.60
2023-01-10T05:08:29.664Z,0.60
2023-01-10T05:10:44.040Z,0.40
2023-01-10T05:12:46.877Z,0.20
2023-01-10T05:14:49.497Z,0.50
2023-01-10T05:16:52.258Z,0.50
2023-01-10T05:18:59.492Z,0.50
2023-01-10T05:21:04.683Z,0.40
2023-01-10T05:23:08.279Z,0.80
2023-01-10T05:25:10.856Z,0.50
2023-01-10T05:27:13.571Z,0.20
2023-01-10T05:29:16.323Z,0.50
2023-01-10T05:31:19.958Z,0.70
2023-01-10T05:33:22.545Z,0.50
2023-01-10T05:35:25.122Z,0.50
2023-01-10T05:37:28.552Z,0.80
2023-01-10T05:39:34.707Z,0.60
2023-01-10T05:41:46.986Z,0.60
2023-01-10T05:43:49.971Z,0.60
2023-01-10T05:45:53.003Z,0.80
2023-01-10T05:47:56.111Z,0.70
2023-01-10T05:49:58.928Z,0.50
2023-01-10T05:52:01.487Z,1.70
2023-01-10T05:54:04.801Z,0.70
2023-01-10T05:56:07.794Z,0.60
2023-01-10T05:58:13.629Z,0.70
2023-01-10T06:00:16.853Z,0.60
2023-01-10T06:02:19.504Z,0.70
2023-01-10T06:04:22.630Z,0.50
2023-01-10T06:06:34.503Z,0.40
2023-01-10T06:08:37.263Z,0.50
2023-01-10T06:10:42.088Z,0.90
2023-01-10T06:12:47.084Z,0.70
2023-01-10T06:14:49.839Z,1.00
2023-01-10T06:16:52.590Z,1.00
2023-01-10T06:18:57.892Z,0.60
2023-01-10T06:21:00.678Z,0.50
2023-01-10T06:23:04.792Z,0.50
2023-01-10T06:25:08.309Z,0.40
2023-01-10T06:27:13.266Z,0.40
2023-01-10T06:29:16.596Z,0.40
2023-01-10T06:31:22.576Z,1.00
2023-01-10T06:33:25.641Z,0.70
2023-01-10T06:35:29.105Z,0.80
2023-01-10T06:37:31.959Z,0.70
2023-01-10T06:39:34.526Z,0.50
2023-01-10T06:41:37.120Z,0.40
2023-01-10T06:43:48.090Z,0.40
2023-01-10T06:45:50.830Z,0.40
2023-01-10T06:47:53.574Z,0.30
2023-01-10T06:49:56.330Z,0.40
2023-01-10T06:51:59.021Z,0.30
2023-01-10T06:54:01.723Z,0.30
2023-01-10T06:56:20.263Z,0.40
2023-01-10T06:58:23.704Z,0.40
2023-01-10T07:00:28.022Z,0.60
2023-01-10T07:02:30.571Z,0.50
2023-01-10T07:04:33.600Z,0.60
2023-01-10T07:06:37.776Z,0.70
2023-01-10T07:08:42.716Z,0.60
2023-01-10T07:10:45.330Z,0.30
2023-01-10T07:12:47.889Z,0.30
2023-01-10T07:14:50.476Z,0.60
2023-01-10T07:16:53.076Z,0.60
2023-01-10T07:19:00.150Z,0.40
2023-01-10T07:21:03.823Z,0.50
2023-01-10T07:23:10.702Z,0.40
2023-01-10T07:25:13.759Z,0.40
2023-01-10T07:27:17.039Z,0.30
2023-01-10T07:29:19.789Z,0.50
2023-01-10T07:31:25.860Z,0.60
2023-01-10T07:33:29.685Z,0.40
2023-01-10T07:35:32.507Z,0.50
2023-01-10T07:37:35.234Z,0.50
2023-01-10T07:39:38.022Z,0.50
2023-01-10T07:41:40.642Z,0.60
2023-01-10T07:43:43.192Z,0.40
2023-01-10T07:45:45.812Z,0.70
2023-01-10T07:47:48.450Z,0.30
2023-01-10T07:49:50.958Z,0.50
2023-01-10T07:51:53.736Z,0.70
2023-01-10T07:53:56.399Z,0.50
2023-01-10T07:56:02.494Z,0.70
2023-01-10T07:58:08.472Z,0.50
2023-01-10T08:00:11.716Z,0.50
2023-01-10T08:02:14.401Z,0.40
2023-01-10T08:04:17.011Z,0.40
2023-01-10T08:06:19.902Z,0.40
2023-01-10T08:08:22.743Z,0.50
2023-01-10T08:10:26.097Z,0.60
2023-01-10T08:12:28.634Z,0.50
2023-01-10T08:14:31.223Z,0.40
2023-01-10T08:16:34.005Z,0.30
2023-01-10T08:18:36.696Z,0.30
2023-01-10T08:20:39.286Z,1.30
2023-01-10T08:22:42.389Z,0.60
2023-01-10T08:24:44.949Z,0.50
2023-01-10T08:26:47.518Z,0.60
2023-01-10T08:28:50.066Z,0.90
2023-01-10T08:30:55.632Z,0.40
2023-01-10T08:32:58.607Z,0.60
2023-01-10T08:37:14.970Z,0.60
2023-01-10T08:39:17.888Z,0.60
2023-01-10T08:41:20.451Z,0.60
2023-01-10T08:43:23.026Z,0.70
2023-01-10T08:45:25.572Z,1.20
2023-01-10T08:47:29.388Z,1.30
2023-01-10T08:49:32.241Z,0.70
2023-01-10T08:51:35.178Z,0.60
2023-01-10T08:53:39.989Z,0.40
2023-01-10T08:55:42.592Z,0.40
2023-01-10T08:57:45.519Z,0.70
2023-01-10T08:59:48.139Z,0.80
2023-01-10T09:01:51.203Z,0.60
2023-01-10T09:03:53.800Z,1.10
2023-01-10T09:05:59.014Z,1.00
2023-01-10T09:08:03.712Z,0.70
2023-01-10T09:10:07.503Z,1.40
2023-01-10T09:12:29.137Z,0.20
2023-01-10T09:14:32.192Z,0.80
2023-01-10T09:16:34.820Z,0.60
2023-01-10T09:18:37.458Z,0.60
2023-01-10T09:20:42.383Z,0.40
2023-01-10T09:22:45.124Z,0.40
2023-01-10T09:25:08.371Z,0.60
2023-01-10T09:27:11.483Z,0.90
2023-01-10T09:29:16.099Z,1.10
2023-01-10T09:31:18.718Z,0.90
2023-01-10T09:33:21.449Z,1.40
2023-01-10T09:35:26.399Z,1.10
2023-01-10T09:37:30.202Z,0.60
2023-01-10T09:39:34.081Z,0.40
2023-01-10T09:42:03.164Z,0.60
2023-01-10T09:44:37.736Z,1.00
2023-01-10T09:47:21.625Z,0.90
2023-01-10T09:49:43.555Z,1.20
2023-01-10T09:51:50.236Z,0.80
2023-01-10T09:54:10.104Z,1.50
2023-01-10T09:56:18.399Z,0.90
2023-01-10T09:58:27.679Z,0.60
2023-01-10T10:00:42.481Z,0.60
2023-01-10T10:02:49.727Z,0.50
2023-01-10T10:05:22.619Z,0.80
2023-01-10T10:07:25.401Z,0.80
2023-01-10T10:09:31.887Z,0.70
2023-01-10T10:11:50.413Z,0.50
2023-01-10T10:14:06.722Z,0.80
2023-01-10T10:16:37.213Z,0.50
2023-01-10T10:19:08.015Z,0.70
2023-01-10T10:21:37.330Z,0.40
2023-01-10T10:23:54.342Z,0.40
2023-01-10T10:26:49.002Z,0.70
2023-01-10T10:29:07.977Z,0.90
2023-01-10T10:31:48.457Z,0.40
2023-01-10T10:34:02.277Z,0.60
2023-01-10T10:36:15.384Z,0.70
2023-01-10T10:38:44.627Z,0.80
2023-01-10T10:40:48.977Z,0.80
2023-01-10T10:42:54.231Z,0.80
2023-01-10T10:45:05.017Z,0.60
2023-01-10T10:47:15.811Z,1.10
2023-01-10T10:49:35.214Z,0.40
2023-01-10T10:51:52.092Z,0.90
2023-01-10T10:53:56.967Z,0.80
2023-01-10T10:56:01.931Z,1.00
2023-01-10T10:58:06.918Z,0.80
2023-01-10T11:00:22.008Z,0.70
2023-01-10T11:02:32.153Z,0.60
2023-01-10T11:04:35.511Z,0.90
2023-01-10T11:06:49.029Z,0.70
2023-01-10T11:08:55.885Z,2.00
2023-01-10T11:11:03.394Z,0.70
2023-01-10T11:13:35.112Z,0.80
2023-01-10T11:15:46.701Z,0.70
2023-01-10T11:18:04.992Z,1.30
2023-01-10T11:22:35.383Z,0.90
2023-01-10T11:24:49.693Z,0.90
2023-01-10T11:26:52.930Z,0.70
2023-01-10T11:29:17.932Z,1.00
2023-01-10T11:31:30.544Z,0.50
2023-01-10T11:33:35.871Z,0.80
2023-01-10T11:35:41.467Z,0.80
2023-01-10T11:37:58.283Z,0.70
2023-01-10T11:40:23.218Z,0.80
2023-01-10T11:42:29.903Z,0.70
2023-01-10T11:44:32.611Z,0.70
2023-01-10T11:46:35.197Z,0.50
2023-01-10T11:49:04.857Z,0.60
2023-01-10T11:51:25.020Z,0.80
2023-01-10T11:53:57.160Z,0.40
2023-01-10T11:56:00.123Z,0.80
2023-01-10T11:58:07.449Z,0.90
2023-01-10T12:00:11.089Z,1.40
2023-01-10T12:02:24.075Z,0.60
2023-01-10T12:04:31.362Z,0.70
2023-01-10T12:06:34.851Z,0.60
2023-01-10T12:08:48.020Z,0.80
2023-01-10T12:11:18.053Z,0.80
2023-01-10T12:13:20.973Z,0.40
2023-01-10T12:15:29.692Z,0.90
2023-01-10T12:17:36.701Z,0.70
2023-01-10T12:19:39.282Z,0.50
2023-01-10T12:21:44.804Z,0.60
2023-01-10T12:23:51.216Z,0.60
2023-01-10T12:28:30.224Z,0.50
2023-01-10T12:30:44.598Z,0.70
2023-01-10T12:32:52.561Z,0.70
2023-01-10T12:35:02.357Z,0.50
2023-01-10T12:37:47.977Z,0.50
2023-01-10T12:39:59.793Z,0.70
2023-01-10T12:42:27.222Z,1.00
2023-01-10T12:44:44.909Z,0.50
2023-01-10T12:47:40.922Z,1.10
2023-01-10T12:51:50.210Z,1.20
2023-01-10T12:54:03.600Z,0.80
2023-01-10T12:56:11.493Z,0.90
2023-01-10T12:58:38.556Z,0.50
2023-01-10T13:00:48.616Z,0.80
2023-01-10T13:02:58.763Z,0.80
2023-01-10T13:05:04.305Z,1.10
2023-01-10T13:07:12.637Z,0.50
2023-01-10T13:09:22.007Z,1.00
2023-01-10T13:11:30.493Z,0.80
2023-01-10T13:13:40.968Z,1.00
2023-01-10T13:15:53.247Z,0.90
2023-01-10T13:18:03.308Z,1.40
2023-01-10T13:20:24.598Z,1.30
2023-01-10T13:22:27.739Z,0.80
2023-01-10T13:24:32.861Z,0.60
2023-01-10T13:26:57.077Z,0.60
2023-01-10T13:31:35.240Z,0.70
2023-01-10T13:34:02.347Z,0.90
2023-01-10T13:36:19.332Z,0.90
2023-01-10T13:39:01.622Z,1.20
2023-01-10T13:41:32.940Z,0.70
2023-01-10T13:43:36.552Z,1.00
2023-01-10T13:45:41.477Z,0.80
2023-01-10T13:47:44.222Z,0.70
2023-01-10T13:49:46.916Z,1.00
2023-01-10T13:52:41.239Z,0.80
2023-01-10T13:54:56.913Z,0.70
2023-01-10T13:56:59.542Z,1.10
2023-01-10T13:59:23.261Z,0.80
2023-01-10T14:01:48.746Z,0.90
2023-01-10T14:04:18.113Z,1.20
2023-01-10T14:06:31.014Z,1.10
2023-01-10T14:08:33.771Z,1.00
2023-01-10T14:10:36.341Z,1.20
2023-01-10T14:12:57.813Z,0.90
2023-01-10T14:15:08.446Z,0.90
2023-01-10T14:17:15.887Z,1.20
2023-01-10T14:19:30.116Z,1.00
2023-01-10T14:21:41.904Z,1.00
2023-01-10T14:23:50.905Z,1.10
2023-01-10T14:25:57.882Z,0.70
2023-01-10T14:28:01.730Z,0.40
2023-01-10T14:30:06.437Z,0.90
2023-01-10T14:32:27.830Z,1.20
2023-01-10T14:34:38.916Z,1.20
2023-01-10T14:36:49.893Z,1.10
2023-01-10T14:38:57.142Z,0.80
2023-01-10T14:41:10.930Z,0.30
2023-01-10T14:43:23.717Z,1.20
2023-01-10T14:45:39.916Z,1.20
2023-01-10T14:47:42.529Z,0.90
2023-01-10T14:49:51.368Z,0.90
2023-01-10T14:52:21.416Z,0.70
2023-01-10T14:54:24.025Z,0.70
2023-01-10T14:56:47.612Z,0.90
2023-01-10T14:58:50.248Z,0.90
2023-01-10T15:00:59.262Z,0.90
2023-01-10T15:03:04.219Z,0.60
2023-01-10T15:05:19.218Z,0.70
2023-01-10T15:07:23.907Z,1.30
2023-01-10T15:09:27.933Z,1.00
2023-01-10T15:11:32.021Z,1.10
2023-01-10T15:13:41.001Z,0.90
2023-01-10T15:15:47.825Z,1.00
2023-01-10T15:17:51.828Z,1.10
2023-01-10T15:19:57.918Z,0.60
2023-01-10T15:22:28.030Z,0.90
2023-01-10T15:24:41.317Z,1.20
2023-01-10T15:26:44.157Z,1.20
2023-01-10T15:29:04.861Z,0.80
2023-01-10T15:31:14.079Z,1.20
2023-01-10T15:33:29.859Z,1.20
2023-01-10T15:35:42.535Z,1.10
2023-01-10T15:37:52.030Z,0.90
2023-01-10T15:40:03.209Z,0.70
2023-01-10T15:42:22.945Z,1.80
2023-01-10T15:45:16.633Z,0.70
2023-01-10T15:47:51.852Z,1.20
2023-01-10T15:49:58.318Z,0.80
2023-01-10T15:52:19.249Z,0.70
2023-01-10T15:54:22.266Z,0.80
2023-01-10T15:57:09.685Z,1.20
2023-01-10T15:59:26.075Z,1.00
2023-01-10T16:01:31.293Z,1.50
2023-01-10T16:03:41.956Z,0.90
2023-01-10T16:05:59.836Z,1.70
2023-01-10T16:08:05.268Z,1.50
2023-01-10T16:10:27.879Z,1.70
2023-01-10T16:12:53.064Z,1.40
2023-01-10T16:14:56.888Z,1.30
2023-01-10T16:17:02.687Z,1.10
2023-01-10T16:19:06.814Z,1.00
2023-01-10T16:21:12.008Z,1.10
2023-01-10T16:23:28.277Z,1.20
2023-01-10T16:25:48.272Z,0.70
2023-01-10T16:27:53.548Z,0.90
2023-01-10T16:29:59.368Z,0.70
2023-01-10T16:32:16.522Z,0.60
2023-01-10T16:34:20.380Z,1.00
2023-01-10T16:36:29.807Z,0.90
2023-01-10T16:38:35.339Z,1.00
2023-01-10T16:40:43.935Z,0.90
2023-01-10T16:43:06.474Z,1.20
2023-01-10T16:45:09.570Z,1.10
2023-01-10T16:47:13.999Z,1.50
2023-01-10T16:49:18.827Z,1.30
2023-01-10T16:51:29.163Z,1.20
2023-01-10T16:53:32.019Z,1.10
2023-01-10T16:55:44.396Z,1.00
2023-01-10T16:57:49.150Z,1.20
2023-01-10T16:59:51.952Z,1.20
2023-01-10T17:02:04.981Z,1.40
2023-01-10T17:04:09.015Z,1.30
2023-01-10T17:06:15.777Z,1.10
2023-01-10T17:08:21.292Z,1.30
2023-01-10T17:10:24.323Z,1.30
2023-01-10T17:12:34.291Z,1.40
2023-01-10T17:14:39.040Z,1.10
2023-01-10T17:16:42.067Z,1.10
2023-01-10T17:18:45.841Z,1.30
2023-01-10T17:20:50.946Z,1.40
2023-01-10T17:22:57.124Z,1.00
2023-01-10T17:24:59.891Z,0.70
2023-01-10T17:27:02.460Z,0.80
2023-01-10T17:29:05.870Z,1.40
2023-01-10T17:31:08.934Z,1.00
2023-01-10T17:33:12.215Z,1.30
2023-01-10T17:35:15.215Z,1.20
2023-01-10T17:37:18.450Z,1.40
2023-01-10T17:39:21.251Z,1.20
2023-01-10T17:41:23.879Z,1.00
2023-01-10T17:43:26.507Z,1.10
2023-01-10T17:45:29.233Z,1.30
2023-01-10T17:47:31.981Z,1.20
2023-01-10T17:49:36.590Z,1.10
2023-01-10T17:51:39.350Z,1.20
2023-01-10T17:53:41.968Z,1.10
2023-01-10T17:55:49.395Z,1.40
2023-01-10T17:57:52.103Z,0.60
2023-01-10T17:59:54.808Z,1.30
2023-01-10T18:01:57.671Z,0.90
2023-01-10T18:04:00.492Z,0.90
2023-01-10T18:06:05.544Z,1.00
2023-01-10T18:08:08.864Z,1.10
2023-01-10T18:10:12.989Z,1.00
2023-01-10T18:12:16.252Z,1.00
2023-01-10T18:14:37.303Z,1.50
2023-01-10T18:16:40.077Z,1.30
2023-01-10T18:18:42.853Z,1.00
2023-01-10T18:20:45.514Z,1.40
2023-01-10T18:23:07.273Z,1.20
2023-01-10T18:25:10.088Z,1.10
2023-01-10T18:27:13.096Z,1.40
2023-01-10T18:29:16.587Z,1.80
2023-01-10T18:31:21.300Z,1.30
2023-01-10T18:33:24.326Z,1.10
2023-01-10T18:35:28.022Z,1.70
2023-01-10T18:37:30.657Z,1.20
2023-01-10T18:39:33.935Z,1.50
2023-01-10T18:41:36.983Z,0.80
2023-01-10T18:43:40.943Z,1.30
2023-01-10T18:45:46.408Z,1.20
2023-01-10T18:47:51.974Z,1.30
2023-01-10T18:49:55.310Z,1.30
2023-01-10T18:51:58.078Z,0.90
2023-01-10T18:54:01.484Z,1.40
2023-01-10T18:56:05.082Z,1.70
2023-01-10T18:58:09.632Z,1.10
2023-01-10T19:00:13.409Z,1.10
2023-01-10T19:02:19.798Z,1.00
2023-01-10T19:04:23.116Z,0.70
2023-01-10T19:06:26.283Z,2.10
2023-01-10T19:08:29.584Z,1.60
2023-01-10T19:10:55.022Z,1.50
2023-01-10T19:12:55.940Z,1.50
2023-01-10T19:14:58.826Z,1.00
2023-01-10T19:17:01.505Z,1.20
2023-01-10T19:19:09.336Z,0.90
2023-01-10T19:21:16.442Z,1.20
2023-01-10T19:23:19.753Z,1.40
2023-01-10T19:25:23.118Z,1.30
2023-01-10T19:27:27.254Z,1.10
2023-01-10T19:29:30.741Z,0.90
2023-01-10T19:31:33.576Z,1.00
2023-01-10T19:33:37.601Z,1.00
2023-01-10T19:35:40.808Z,1.10
2023-01-10T19:37:46.475Z,1.20
2023-01-10T19:39:50.631Z,0.90
2023-01-10T19:41:53.290Z,0.80
2023-01-10T19:43:57.495Z,1.10
2023-01-10T19:46:08.603Z,1.00
2023-01-10T19:48:12.318Z,0.60
2023-01-10T19:50:16.385Z,1.30
2023-01-10T19:52:21.685Z,1.10
2023-01-10T19:54:25.848Z,0.80
2023-01-10T19:56:30.141Z,1.30
2023-01-10T19:58:35.983Z,1.50
2023-01-10T20:02:41.837Z,1.40
2023-01-10T20:04:50.189Z,1.20
2023-01-10T20:06:53.401Z,1.10
2023-01-10T20:08:57.867Z,1.20
2023-01-10T20:11:08.632Z,0.90
2023-01-10T20:13:12.475Z,0.90
2023-01-10T20:15:16.057Z,1.30
2023-01-10T20:17:20.049Z,1.30
2023-01-10T20:19:23.776Z,0.90
2023-01-10T20:21:26.509Z,0.90
2023-01-10T20:23:31.438Z,1.00
2023-01-10T20:27:38.142Z,0.70
2023-01-10T20:29:42.802Z,1.10
2023-01-10T20:31:55.813Z,1.10
2023-01-10T20:33:59.360Z,1.10
2023-01-10T20:36:06.273Z,1.20
2023-01-10T20:38:09.517Z,1.00
2023-01-10T20:40:12.467Z,1.00
2023-01-10T20:42:15.196Z,1.10
2023-01-10T20:44:18.410Z,1.70
2023-01-10T20:46:25.197Z,1.70
2023-01-10T20:48:27.944Z,1.60
2023-01-10T20:50:31.125Z,0.90
2023-01-10T20:52:34.299Z,1.40
2023-01-10T20:54:39.528Z,1.30
2023-01-10T20:56:45.202Z,1.10
2023-01-10T20:58:48.533Z,0.90
2023-01-10T21:00:54.171Z,1.00
2023-01-10T21:02:57.243Z,1.20
2023-01-10T21:05:00.563Z,1.00
2023-01-10T21:07:03.365Z,1.10
2023-01-10T21:09:06.021Z,1.40
2023-01-10T21:11:12.154Z,1.70
2023-01-10T21:13:17.917Z,1.30
2023-01-10T21:15:20.528Z,1.50
2023-01-10T21:17:23.214Z,1.30
2023-01-10T21:19:25.911Z,1.10
2023-01-10T21:21:28.481Z,1.60
2023-01-10T21:23:31.804Z,1.40
2023-01-10T21:25:35.018Z,1.10
2023-01-10T21:27:37.579Z,1.10
2023-01-10T21:29:40.375Z,0.80
2023-01-10T21:31:44.682Z,0.90
2023-01-10T21:33:49.075Z,1.60
2023-01-10T21:35:53.995Z,0.70
2023-01-10T21:37:57.793Z,1.20
2023-01-10T21:40:00.459Z,1.00
2023-01-10T21:42:22.266Z,1.00
2023-01-10T21:44:25.763Z,1.00
2023-01-10T21:46:28.481Z,1.40
2023-01-10T21:48:31.331Z,1.20
2023-01-10T21:50:34.124Z,0.60
2023-01-10T21:52:36.903Z,1.10
2023-01-10T21:54:40.779Z,1.10
2023-01-10T21:56:43.675Z,0.70
2023-01-10T21:58:48.014Z,1.00
2023-01-10T22:00:58.930Z,1.10
2023-01-10T22:03:02.392Z,0.80
2023-01-10T22:05:05.899Z,1.20
2023-01-10T22:07:08.540Z,1.20
2023-01-10T22:09:11.318Z,1.20
2023-01-10T22:11:13.925Z,1.10
2023-01-10T22:13:16.501Z,0.90
2023-01-10T22:15:19.297Z,0.80
2023-01-10T22:17:22.108Z,1.30
2023-01-10T22:19:24.775Z,0.70
2023-01-10T22:21:27.357Z,0.70
2023-01-10T22:23:30.809Z,1.00
2023-01-10T22:25:33.619Z,0.80
2023-01-10T22:27:36.308Z,0.90
2023-01-10T22:29:38.920Z,0.90
2023-01-10T22:31:41.883Z,0.80
2023-01-10T22:33:44.630Z,0.90
2023-01-10T22:35:47.327Z,1.00
2023-01-10T22:37:55.265Z,0.60
2023-01-10T22:39:58.732Z,1.20
2023-01-10T22:42:01.757Z,0.90
2023-01-10T22:44:05.341Z,1.30
2023-01-10T22:46:09.006Z,1.30
2023-01-10T22:48:11.700Z,1.10
2023-01-10T22:50:15.275Z,1.10
2023-01-10T22:52:17.861Z,0.90
2023-01-10T22:54:20.472Z,0.80
2023-01-10T22:56:24.611Z,0.80
2023-01-10T22:58:31.955Z,0.80
2023-01-10T23:00:35.008Z,1.10
2023-01-10T23:02:38.007Z,0.70
2023-01-10T23:04:40.633Z,1.10
2023-01-10T23:06:43.486Z,1.00
2023-01-10T23:08:46.441Z,1.20
2023-01-10T23:10:50.177Z,0.70
2023-01-10T23:12:52.839Z,0.60
2023-01-10T23:14:55.423Z,0.80
2023-01-10T23:16:58.118Z,1.00
2023-01-10T23:19:00.791Z,0.60
2023-01-10T23:21:04.501Z,0.90
2023-01-10T23:23:07.186Z,0.60
2023-01-10T23:25:10.441Z,0.90
2023-01-10T23:27:14.391Z,0.70
2023-01-10T23:29:17.432Z,0.80
2023-01-10T23:31:22.552Z,1.00
2023-01-10T23:33:28.966Z,1.40
2023-01-10T23:35:31.536Z,0.80
2023-01-10T23:37:34.202Z,0.90
2023-01-10T23:39:36.735Z,1.10
2023-01-10T23:41:39.436Z,0.80
2023-01-10T23:43:42.691Z,1.00
2023-01-10T23:45:45.830Z,1.30
2023-01-10T23:47:48.711Z,0.90
2023-01-10T23:49:51.321Z,1.20
2023-01-10T23:51:53.941Z,0.90
2023-01-10T23:53:56.563Z,0.80
2023-01-10T23:55:59.489Z,0.60
2023-01-10T23:58:02.182Z,1.40
